createdAt,value
2018-06-30T00:02:52.717Z,11.66
2018-06-30T00:08:47.708Z,10.65
2018-06-30T00:14:42.736Z,10.44
2018-06-30T00:20:37.784Z,9.3
2018-06-30T00:26:32.746Z,9.43
2018-06-30T00:32:27.718Z,8.76
2018-06-30T00:38:22.856Z,8.33
2018-06-30T00:44:17.737Z,8.23
2018-06-30T00:50:12.862Z,7.89
2018-06-30T00:56:07.749Z,8.11
2018-06-30T01:02:02.750Z,8.76
2018-06-30T01:07:57.770Z,9
2018-06-30T01:13:52.806Z,9.47
2018-06-30T01:19:47.777Z,9.17
2018-06-30T01:25:42.778Z,9.48
2018-06-30T01:31:37.800Z,10.43
2018-06-30T01:37:32.800Z,10.32
2018-06-30T01:43:27.756Z,9.89
2018-06-30T01:49:22.778Z,9.91
2018-06-30T01:55:17.772Z,8.72
2018-06-30T02:01:12.831Z,9.13
2018-06-30T02:07:07.793Z,9.35
2018-06-30T02:13:02.808Z,8.98
2018-06-30T02:18:57.833Z,9.67
2018-06-30T02:24:52.823Z,9.45
2018-06-30T02:30:47.783Z,10.61
2018-06-30T02:36:42.794Z,10.44
2018-06-30T02:42:37.837Z,10.54
2018-06-30T02:48:32.802Z,11.38
2018-06-30T02:54:27.833Z,9.83
2018-06-30T03:00:22.882Z,10.55
2018-06-30T03:06:17.934Z,11.29
2018-06-30T03:12:12.920Z,12.66
2018-06-30T03:18:07.873Z,10.12
2018-06-30T03:24:02.844Z,11.18
2018-06-30T03:29:57.840Z,11.13
2018-06-30T03:35:52.842Z,11.58
2018-06-30T03:41:47.919Z,10.7
2018-06-30T03:47:42.857Z,10.86
2018-06-30T03:53:37.851Z,10.29
2018-06-30T03:59:32.883Z,11.36
2018-06-30T04:05:27.902Z,11.21
2018-06-30T04:11:22.897Z,10.31
2018-06-30T04:17:17.873Z,9.69
2018-06-30T04:23:12.875Z,9.86
2018-06-30T04:29:07.929Z,9.56
2018-06-30T04:35:02.971Z,8.9
2018-06-30T04:40:57.952Z,8.62
2018-06-30T04:46:52.872Z,8.64
2018-06-30T04:52:47.929Z,9.25
2018-06-30T04:58:42.887Z,8.84
2018-06-30T05:04:37.919Z,9.41
2018-06-30T05:10:32.923Z,9.58
2018-06-30T05:16:27.889Z,12.41
2018-06-30T05:22:22.888Z,11.46
2018-06-30T05:28:17.926Z,10.36
2018-06-30T05:34:12.942Z,10.07
2018-06-30T05:40:07.908Z,10.02
2018-06-30T05:46:02.963Z,11.95
2018-06-30T05:51:57.923Z,11.06
2018-06-30T05:57:52.941Z,11.05
2018-06-30T06:03:47.948Z,11.33
2018-06-30T06:09:43.062Z,12.3
2018-06-30T06:15:37.947Z,11.1
2018-06-30T06:21:32.953Z,14.85
2018-06-30T06:27:28.003Z,14.56
2018-06-30T06:33:22.945Z,18.04
2018-06-30T06:39:17.973Z,16.73
2018-06-30T06:45:12.992Z,14.04
2018-06-30T06:51:08.110Z,16
2018-06-30T06:57:03.068Z,17.24
2018-06-30T07:02:58.048Z,15.11
2018-06-30T07:08:52.982Z,14.5
2018-06-30T07:14:47.981Z,14.19
2018-06-30T07:20:43.022Z,12.9
2018-06-30T07:26:38.018Z,13.13
2018-06-30T07:32:32.994Z,10.79
2018-06-30T07:38:28.030Z,10.38
2018-06-30T07:44:23.044Z,9.5
2018-06-30T07:50:18.093Z,8.57
2018-06-30T07:56:13.063Z,8.66
2018-06-30T08:02:08.113Z,7.62
2018-06-30T08:08:03.044Z,7.84
2018-06-30T08:13:58.253Z,7.4
2018-06-30T08:19:53.053Z,7.66
2018-06-30T08:25:48.049Z,7.96
2018-06-30T08:31:43.062Z,7.18
2018-06-30T08:37:38.030Z,6.7
2018-06-30T08:43:33.098Z,6.86
2018-06-30T08:49:28.066Z,7.13
2018-06-30T08:55:23.069Z,6.45
2018-06-30T09:01:18.104Z,6.05
2018-06-30T09:07:13.114Z,5.79
2018-06-30T09:13:08.095Z,6.02
2018-06-30T09:19:03.101Z,5.27
2018-06-30T09:24:58.080Z,5.94
2018-06-30T09:30:53.073Z,5.95
2018-06-30T09:36:48.135Z,5.9
2018-06-30T09:42:43.173Z,6.03
2018-06-30T09:48:38.135Z,6.45
2018-06-30T09:54:33.099Z,5.87
2018-06-30T10:00:28.201Z,6.56
2018-06-30T10:06:23.135Z,5.46
2018-06-30T10:12:18.105Z,5.2
2018-06-30T10:18:13.143Z,4.49
2018-06-30T10:24:08.135Z,4.31
2018-06-30T10:30:03.161Z,4.32
2018-06-30T10:35:58.153Z,3.85
2018-06-30T10:41:53.142Z,3.8
2018-06-30T10:47:48.174Z,3.54
2018-06-30T10:53:43.186Z,3.21
2018-06-30T10:59:38.211Z,3.22
2018-06-30T11:05:33.179Z,3.57
2018-06-30T11:11:28.190Z,4.02
2018-06-30T11:17:23.177Z,3.83
2018-06-30T11:23:18.169Z,3.9
2018-06-30T11:29:13.208Z,3.25
2018-06-30T11:35:08.203Z,2.63
2018-06-30T11:41:03.199Z,2.18
2018-06-30T11:46:58.262Z,2.12
2018-06-30T11:52:53.241Z,1.53
2018-06-30T11:58:48.263Z,2
2018-06-30T12:04:43.236Z,1.93
2018-06-30T12:10:38.209Z,1.75
2018-06-30T12:16:33.228Z,2.21
2018-06-30T12:22:28.230Z,2.08
2018-06-30T12:28:23.271Z,2.19
2018-06-30T12:34:18.229Z,2.18
2018-06-30T12:40:13.344Z,2.64
2018-06-30T12:46:08.288Z,2.55
2018-06-30T12:52:03.287Z,2.21
2018-06-30T12:57:58.279Z,3.08
2018-06-30T13:03:53.390Z,3.2
2018-06-30T13:09:48.306Z,2.92
2018-06-30T13:15:43.312Z,3.27
2018-06-30T13:21:38.279Z,3.24
2018-06-30T13:27:33.289Z,3.45
2018-06-30T13:33:28.310Z,3.59
2018-06-30T13:39:23.286Z,3.46
2018-06-30T13:45:18.309Z,4.19
2018-06-30T13:51:13.331Z,3.71
2018-06-30T13:57:08.285Z,3.47
2018-06-30T14:03:03.337Z,3.28
2018-06-30T14:08:58.346Z,3.03
2018-06-30T14:14:53.365Z,2.36
2018-06-30T14:20:48.327Z,2.27
2018-06-30T14:26:43.381Z,2.02
2018-06-30T14:32:38.387Z,1.7
2018-06-30T14:38:33.369Z,1.66
2018-06-30T14:44:28.354Z,2.02
2018-06-30T14:50:23.353Z,2.35
2018-06-30T14:56:18.358Z,1.76
2018-06-30T15:02:13.397Z,1.66
2018-06-30T15:08:08.416Z,1.58
2018-06-30T15:14:03.372Z,1.75
2018-06-30T15:19:58.376Z,1.75
2018-06-30T15:25:53.410Z,1.88
2018-06-30T15:31:48.624Z,1.78
2018-06-30T15:37:43.416Z,1.64
2018-06-30T15:43:38.422Z,2.01
2018-06-30T15:49:33.449Z,1.18
2018-06-30T15:55:28.377Z,1.08
2018-06-30T16:01:23.444Z,1.3
2018-06-30T16:07:18.434Z,1.77
2018-06-30T16:13:13.414Z,1.17
2018-06-30T16:19:08.439Z,1.05
2018-06-30T16:25:03.482Z,0.74
2018-06-30T16:30:58.486Z,1.11
2018-06-30T16:36:53.464Z,1.38
2018-06-30T16:42:48.452Z,1.08
2018-06-30T16:48:43.431Z,0.74
2018-06-30T16:54:38.453Z,1
2018-06-30T17:00:33.573Z,0.73
2018-06-30T17:06:28.512Z,0.83
2018-06-30T17:12:23.469Z,0.67
2018-06-30T17:18:18.474Z,0.77
2018-06-30T17:24:13.491Z,0.93
2018-06-30T17:30:08.513Z,1.07
2018-06-30T17:36:03.508Z,1.56
2018-06-30T17:41:58.484Z,1.28
2018-06-30T17:47:53.507Z,0.97
2018-06-30T17:53:48.518Z,1.08
2018-06-30T17:59:43.479Z,2.46
2018-06-30T18:05:38.509Z,2.51
2018-06-30T18:11:33.495Z,5.43
2018-06-30T18:17:28.582Z,1.72
2018-06-30T18:23:23.594Z,2.09
2018-06-30T18:29:18.557Z,5.18
2018-06-30T18:35:13.612Z,3.51
2018-06-30T18:41:08.538Z,4.93
2018-06-30T18:47:03.543Z,18.46
2018-06-30T18:52:58.662Z,8.71
2018-06-30T18:58:53.533Z,2.68
2018-06-30T19:04:48.552Z,2.83
2018-06-30T19:10:43.574Z,4.41
2018-06-30T19:16:38.586Z,6.44
2018-06-30T19:22:33.574Z,5.27
2018-06-30T19:28:28.562Z,2.96
2018-06-30T19:34:23.572Z,5.31
2018-06-30T19:40:18.558Z,2.93
2018-06-30T19:46:13.580Z,8.82
2018-06-30T19:52:08.558Z,6.83
2018-06-30T19:58:03.625Z,8.77
2018-06-30T20:03:58.598Z,5.59
2018-06-30T20:09:53.607Z,4.25
2018-06-30T20:15:48.639Z,3.7
2018-06-30T20:21:43.614Z,3.26
2018-06-30T20:27:38.584Z,3.63
2018-06-30T20:33:33.636Z,5.7
2018-06-30T20:39:28.602Z,6.87
2018-06-30T20:45:23.794Z,7.19
2018-06-30T20:51:18.663Z,4.06
2018-06-30T20:57:13.627Z,3.45
2018-06-30T21:03:08.621Z,7
2018-06-30T21:09:03.638Z,10.16
2018-06-30T21:14:58.689Z,3.81
2018-06-30T21:20:53.715Z,6.46
2018-06-30T21:26:48.657Z,9.56
2018-06-30T21:32:43.677Z,11.44
2018-06-30T21:38:38.707Z,15.74
2018-06-30T21:44:33.679Z,7.69
2018-06-30T21:50:28.657Z,11.45
2018-06-30T21:56:23.745Z,14.46
2018-06-30T22:02:18.671Z,45.23
2018-06-30T22:08:13.688Z,17.53
2018-06-30T22:14:08.700Z,10.24
2018-06-30T22:20:03.682Z,10.11
2018-06-30T22:25:58.690Z,7.42
2018-06-30T22:31:53.681Z,9.84
2018-06-30T22:37:48.693Z,8.16
2018-06-30T22:43:43.711Z,5.73
2018-06-30T22:49:38.709Z,5.48
2018-06-30T22:55:33.696Z,7.58
2018-06-30T23:01:28.713Z,7.37
2018-06-30T23:07:23.699Z,5.94
2018-06-30T23:13:18.730Z,8.18
2018-06-30T23:19:13.709Z,5.39
2018-06-30T23:25:08.720Z,4.27
2018-06-30T23:31:03.738Z,4.44
2018-06-30T23:36:58.724Z,4.59
2018-06-30T23:42:53.751Z,4.9
2018-06-30T23:48:48.746Z,7.68
2018-06-30T23:54:43.741Z,6.07
